createdAt,value
2022-10-11T00:00:24.048Z,5.32
2022-10-11T00:01:27.118Z,5.34
2022-10-11T00:02:32.674Z,5.38
2022-10-11T00:03:35.770Z,5.41
2022-10-11T00:04:39.980Z,5.42
2022-10-11T00:05:44.384Z,5.42
2022-10-11T00:06:48.551Z,5.44
2022-10-11T00:07:51.947Z,5.44
2022-10-11T00:08:56.031Z,5.45
2022-10-11T00:09:59.091Z,5.47
2022-10-11T00:11:05.175Z,5.48
2022-10-11T00:12:09.335Z,5.51
2022-10-11T00:13:12.367Z,5.53
2022-10-11T00:14:16.312Z,5.56
2022-10-11T00:15:21.493Z,5.55
2022-10-11T00:16:25.837Z,5.57
2022-10-11T00:17:28.820Z,5.58
2022-10-11T00:18:34.300Z,5.61
2022-10-11T00:19:37.310Z,5.61
2022-10-11T00:20:41.520Z,5.62
2022-10-11T00:21:44.639Z,5.63
2022-10-11T00:22:49.533Z,5.63
2022-10-11T00:23:52.556Z,5.64
2022-10-11T00:24:56.693Z,5.65
2022-10-11T00:26:00.482Z,5.66
2022-10-11T00:27:04.460Z,5.68
2022-10-11T00:28:08.243Z,5.70
2022-10-11T00:29:13.055Z,5.70
2022-10-11T00:30:16.094Z,5.72
2022-10-11T00:31:20.279Z,5.73
2022-10-11T00:32:23.501Z,5.71
2022-10-11T00:33:27.566Z,5.71
2022-10-11T00:34:32.270Z,5.68
2022-10-11T00:35:36.313Z,5.66
2022-10-11T00:36:39.328Z,5.63
2022-10-11T00:37:43.453Z,5.65
2022-10-11T00:38:46.759Z,5.65
2022-10-11T00:39:51.311Z,5.67
2022-10-11T00:40:54.353Z,5.68
2022-10-11T00:41:58.421Z,5.70
2022-10-11T00:43:01.879Z,5.69
2022-10-11T00:44:13.520Z,5.69
2022-10-11T00:45:59.732Z,5.69
2022-10-11T00:47:06.437Z,5.67
2022-10-11T00:48:12.093Z,5.69
2022-10-11T00:49:21.392Z,5.69
2022-10-11T00:50:28.947Z,5.70
2022-10-11T00:51:41.075Z,5.70
2022-10-11T00:52:47.292Z,5.68
2022-10-11T00:53:53.031Z,5.66
2022-10-11T00:54:57.672Z,5.66
2022-10-11T00:56:05.291Z,5.67
2022-10-11T00:57:11.838Z,5.68
2022-10-11T00:58:15.731Z,5.68
2022-10-11T00:59:22.482Z,5.68
2022-10-11T01:00:25.728Z,5.69
2022-10-11T01:01:30.068Z,5.71
2022-10-11T01:02:33.176Z,5.71
2022-10-11T01:03:37.970Z,5.75
2022-10-11T01:04:41.098Z,5.76
2022-10-11T01:05:46.870Z,5.79
2022-10-11T01:06:50.125Z,5.81
2022-10-11T01:07:55.110Z,5.84
2022-10-11T01:08:58.410Z,5.86
2022-10-11T01:10:02.481Z,5.89
2022-10-11T01:11:05.770Z,5.93
2022-10-11T01:12:17.231Z,5.96
2022-10-11T01:13:29.294Z,5.96
2022-10-11T01:14:58.108Z,5.98
2022-10-11T01:16:08.559Z,5.99
2022-10-11T01:17:21.731Z,6.00
2022-10-11T01:20:49.789Z,6.06
2022-10-11T01:22:01.490Z,6.09
2022-10-11T01:23:32.342Z,6.12
2022-10-11T01:24:49.951Z,6.13
2022-10-11T01:26:08.504Z,6.15
2022-10-11T01:27:30.330Z,6.16
2022-10-11T01:28:44.379Z,6.18
2022-10-11T01:29:53.938Z,6.19
2022-10-11T01:31:03.588Z,6.20
2022-10-11T01:32:10.248Z,6.20
2022-10-11T01:33:22.138Z,6.20
2022-10-11T01:34:29.826Z,6.19
2022-10-11T01:35:40.968Z,6.22
2022-10-11T01:36:49.231Z,6.22
2022-10-11T01:37:57.214Z,6.21
2022-10-11T01:39:03.928Z,6.20
2022-10-11T01:40:11.925Z,6.17
2022-10-11T01:41:18.618Z,6.16
2022-10-11T01:42:23.499Z,6.17
2022-10-11T01:43:27.318Z,6.18
2022-10-11T01:44:32.487Z,6.18
2022-10-11T01:45:36.297Z,6.20
2022-10-11T01:46:42.618Z,6.20
2022-10-11T01:47:46.256Z,6.21
2022-10-11T01:48:52.316Z,6.22
2022-10-11T01:49:57.784Z,6.21
2022-10-11T01:51:04.219Z,6.20
2022-10-11T01:52:07.867Z,6.18
2022-10-11T01:53:30.320Z,6.17
2022-10-11T01:55:07.523Z,6.16
2022-10-11T01:56:15.150Z,6.14
2022-10-11T01:57:35.937Z,6.12
2022-10-11T01:58:49.336Z,6.11
2022-10-11T02:00:00.676Z,6.08
2022-10-11T02:01:10.150Z,6.06
2022-10-11T02:02:28.520Z,6.06
2022-10-11T02:03:38.129Z,6.03
2022-10-11T02:04:45.491Z,6.02
2022-10-11T02:05:51.301Z,6.03
2022-10-11T02:07:00.050Z,6.02
2022-10-11T02:08:08.253Z,6.03
2022-10-11T02:09:16.776Z,6.03
2022-10-11T02:10:27.257Z,6.00
2022-10-11T02:11:32.799Z,5.99
2022-10-11T02:12:38.489Z,5.98
2022-10-11T02:13:47.774Z,5.98
2022-10-11T02:14:51.877Z,5.98
2022-10-11T02:15:58.178Z,5.97
2022-10-11T02:17:04.809Z,5.98
2022-10-11T02:18:13.688Z,5.98
2022-10-11T02:19:20.328Z,5.97
2022-10-11T02:20:27.028Z,5.96
2022-10-11T02:21:30.557Z,5.95
2022-10-11T02:22:37.436Z,5.95
2022-10-11T02:23:43.196Z,5.94
2022-10-11T02:24:50.854Z,5.94
2022-10-11T02:25:57.507Z,5.94
2022-10-11T02:27:05.284Z,5.95
2022-10-11T02:28:11.245Z,5.95
2022-10-11T02:29:16.917Z,5.94
2022-10-11T02:30:20.262Z,5.94
2022-10-11T02:31:25.084Z,5.94
2022-10-11T02:32:29.648Z,5.94
2022-10-11T02:33:39.090Z,5.95
2022-10-11T02:34:45.290Z,5.93
2022-10-11T02:35:54.065Z,5.93
2022-10-11T02:37:02.613Z,5.94
2022-10-11T02:38:12.407Z,5.95
2022-10-11T02:39:21.787Z,5.96
2022-10-11T02:40:29.583Z,5.98
2022-10-11T02:41:35.336Z,5.99
2022-10-11T02:42:44.718Z,6.01
2022-10-11T02:43:52.237Z,6.04
2022-10-11T02:45:01.298Z,6.05
2022-10-11T02:46:06.420Z,6.08
2022-10-11T02:47:11.620Z,6.09
2022-10-11T02:48:15.117Z,6.11
2022-10-11T02:49:22.234Z,6.15
2022-10-11T02:50:25.630Z,6.16
2022-10-11T02:51:32.315Z,6.17
2022-10-11T02:52:35.588Z,6.17
2022-10-11T02:53:40.027Z,6.20
2022-10-11T02:54:43.328Z,6.21
2022-10-11T02:55:48.636Z,6.24
2022-10-11T02:56:52.076Z,6.27
2022-10-11T02:57:56.509Z,6.30
2022-10-11T02:58:59.925Z,6.30
2022-10-11T03:00:04.517Z,6.33
2022-10-11T03:01:07.920Z,6.33
2022-10-11T03:02:12.858Z,6.33
2022-10-11T03:03:16.600Z,6.33
2022-10-11T03:04:22.548Z,6.33
2022-10-11T03:05:25.856Z,6.32
2022-10-11T03:06:30.318Z,6.32
2022-10-11T03:07:33.721Z,6.34
2022-10-11T03:08:38.101Z,6.35
2022-10-11T03:09:41.755Z,6.37
2022-10-11T03:10:46.356Z,6.37
2022-10-11T03:11:49.628Z,6.39
2022-10-11T03:12:54.078Z,6.39
2022-10-11T03:13:57.287Z,6.39
2022-10-11T03:15:01.886Z,6.41
2022-10-11T03:16:05.503Z,6.40
2022-10-11T03:17:34.450Z,6.40
2022-10-11T03:18:34.305Z,6.38
2022-10-11T03:19:39.363Z,6.38
2022-10-11T03:20:43.968Z,6.38
2022-10-11T03:21:47.469Z,6.39
2022-10-11T03:22:51.885Z,6.40
2022-10-11T03:23:55.103Z,6.43
2022-10-11T03:25:03.553Z,6.44
2022-10-11T03:26:08.070Z,6.44
2022-10-11T03:27:12.927Z,6.44
2022-10-11T03:28:16.517Z,6.44
2022-10-11T03:29:20.949Z,6.45
2022-10-11T03:30:24.366Z,6.44
2022-10-11T03:31:28.787Z,6.45
2022-10-11T03:32:32.026Z,6.44
2022-10-11T03:33:36.409Z,6.45
2022-10-11T03:34:41.138Z,6.43
2022-10-11T03:35:46.407Z,6.44
2022-10-11T03:36:50.927Z,6.45
2022-10-11T03:37:54.224Z,6.44
2022-10-11T03:38:58.723Z,6.45
2022-10-11T03:40:03.560Z,6.44
2022-10-11T03:41:08.087Z,6.44
2022-10-11T03:42:11.428Z,6.44
2022-10-11T03:43:16.279Z,6.43
2022-10-11T03:44:19.517Z,6.42
2022-10-11T03:45:24.037Z,6.41
2022-10-11T03:46:27.357Z,6.42
2022-10-11T03:47:31.814Z,6.42
2022-10-11T03:48:35.097Z,6.40
2022-10-11T03:49:43.403Z,6.39
2022-10-11T03:50:49.158Z,6.41
2022-10-11T03:51:53.557Z,6.43
2022-10-11T03:52:56.973Z,6.45
2022-10-11T03:54:01.348Z,6.48
2022-10-11T03:55:05.337Z,6.51
2022-10-11T03:56:11.367Z,6.55
2022-10-11T03:57:15.187Z,6.58
2022-10-11T03:58:19.564Z,6.61
2022-10-11T03:59:22.859Z,6.64
2022-10-11T04:00:27.339Z,6.65
2022-10-11T04:01:31.185Z,6.68
2022-10-11T04:02:39.081Z,6.70
2022-10-11T04:03:42.677Z,6.71
2022-10-11T04:04:47.306Z,6.73
2022-10-11T04:05:52.119Z,6.74
2022-10-11T04:06:56.468Z,6.74
2022-10-11T04:07:59.804Z,6.73
2022-10-11T04:09:04.357Z,6.72
2022-10-11T04:10:08.426Z,6.71
2022-10-11T04:11:12.766Z,6.71
2022-10-11T04:12:16.087Z,6.71
2022-10-11T04:13:20.499Z,6.72
2022-10-11T04:14:23.657Z,6.73
2022-10-11T04:15:28.197Z,6.73
2022-10-11T04:16:31.507Z,6.73
2022-10-11T04:17:35.847Z,6.75
2022-10-11T04:18:39.200Z,6.75
2022-10-11T04:19:43.498Z,6.76
2022-10-11T04:20:46.796Z,6.76
2022-10-11T04:21:52.767Z,6.75
2022-10-11T04:22:56.087Z,6.74
2022-10-11T04:24:00.455Z,6.74
2022-10-11T04:25:03.737Z,6.73
2022-10-11T04:26:09.023Z,6.73
2022-10-11T04:27:12.497Z,6.73
2022-10-11T04:28:16.899Z,6.71
2022-10-11T04:29:20.248Z,6.69
2022-10-11T04:30:24.881Z,6.69
2022-10-11T04:31:28.336Z,6.70
2022-10-11T04:32:32.928Z,6.71
2022-10-11T04:33:36.118Z,6.73
2022-10-11T04:34:40.427Z,6.76
2022-10-11T04:35:43.819Z,6.80
2022-10-11T04:36:49.985Z,6.81
2022-10-11T04:37:55.009Z,6.84
2022-10-11T04:38:59.329Z,6.87
2022-10-11T04:40:02.823Z,6.91
2022-10-11T04:41:10.870Z,6.95
2022-10-11T04:42:14.439Z,7.01
2022-10-11T04:43:19.289Z,7.06
2022-10-11T04:44:22.630Z,7.11
2022-10-11T04:45:26.999Z,7.16
2022-10-11T04:46:30.525Z,7.20
2022-10-11T04:47:35.037Z,7.23
2022-10-11T04:48:38.399Z,7.28
2022-10-11T04:49:42.846Z,7.32
2022-10-11T04:50:46.375Z,7.37
2022-10-11T04:51:53.860Z,7.40
2022-10-11T04:52:58.628Z,7.43
2022-10-11T04:54:02.977Z,7.47
2022-10-11T04:55:07.049Z,7.49
2022-10-11T04:56:12.283Z,7.53
2022-10-11T04:57:16.027Z,7.55
2022-10-11T04:58:20.706Z,7.58
2022-10-11T04:59:24.027Z,7.58
2022-10-11T05:00:28.376Z,7.62
2022-10-11T05:01:31.696Z,7.64
2022-10-11T05:02:36.147Z,7.67
2022-10-11T05:03:39.398Z,7.69
2022-10-11T05:04:44.108Z,7.72
2022-10-11T05:05:47.474Z,7.73
2022-10-11T05:06:51.937Z,7.76
2022-10-11T05:07:55.256Z,7.80
2022-10-11T05:09:01.759Z,7.83
2022-10-11T05:10:05.867Z,7.86
2022-10-11T05:11:15.669Z,7.89
2022-10-11T05:12:19.459Z,7.92
2022-10-11T05:13:23.820Z,7.95
2022-10-11T05:14:27.258Z,7.99
2022-10-11T05:15:31.949Z,8.03
2022-10-11T05:16:35.407Z,8.06
2022-10-11T05:17:39.849Z,8.09
2022-10-11T05:18:43.408Z,8.14
2022-10-11T05:19:47.993Z,8.16
2022-10-11T05:20:51.306Z,8.19
2022-10-11T05:21:56.466Z,8.19
2022-10-11T05:22:59.794Z,8.19
2022-10-11T05:24:05.848Z,8.19
2022-10-11T05:25:09.731Z,8.20
2022-10-11T05:26:14.170Z,8.22
2022-10-11T05:27:17.536Z,8.22
2022-10-11T05:28:22.028Z,8.22
2022-10-11T05:29:25.539Z,8.24
2022-10-11T05:30:30.256Z,8.25
2022-10-11T05:31:33.767Z,8.25
2022-10-11T05:32:38.283Z,8.27
2022-10-11T05:33:41.813Z,8.29
2022-10-11T05:34:46.501Z,8.30
2022-10-11T05:35:49.808Z,8.31
2022-10-11T05:36:54.320Z,8.33
2022-10-11T05:37:57.687Z,8.37
2022-10-11T05:39:02.080Z,8.40
2022-10-11T05:40:08.408Z,8.43
2022-10-11T05:41:15.075Z,8.46
2022-10-11T05:42:18.323Z,8.49
2022-10-11T05:43:22.746Z,8.53
2022-10-11T05:44:26.347Z,8.55
2022-10-11T05:45:30.759Z,8.59
2022-10-11T05:46:34.188Z,8.61
2022-10-11T05:47:38.568Z,8.65
2022-10-11T05:48:42.044Z,8.68
2022-10-11T05:49:46.380Z,8.69
2022-10-11T05:50:49.756Z,8.71
2022-10-11T05:51:54.222Z,8.74
2022-10-11T05:52:57.667Z,8.76
2022-10-11T05:54:02.112Z,8.80
2022-10-11T05:55:08.319Z,8.83
2022-10-11T05:56:23.009Z,8.87
2022-10-11T05:57:26.367Z,8.90
2022-10-11T05:58:31.470Z,8.94
2022-10-11T05:59:36.130Z,8.97
2022-10-11T06:00:40.978Z,9.00
2022-10-11T06:01:44.478Z,9.02
2022-10-11T06:02:48.987Z,9.03
2022-10-11T06:03:53.137Z,9.06
2022-10-11T06:04:57.687Z,9.09
2022-10-11T06:06:03.837Z,9.12
2022-10-11T06:07:07.292Z,9.15
2022-10-11T06:08:12.058Z,9.18
2022-10-11T06:09:15.457Z,9.20
2022-10-11T06:10:21.585Z,9.22
2022-10-11T06:11:28.125Z,9.25
2022-10-11T06:12:31.890Z,9.30
2022-10-11T06:13:36.436Z,9.33
2022-10-11T06:14:40.929Z,9.39
2022-10-11T06:15:44.358Z,9.43
2022-10-11T06:16:48.792Z,9.47
2022-10-11T06:17:52.098Z,9.50
2022-10-11T06:18:56.711Z,9.54
2022-10-11T06:20:00.136Z,9.57
2022-10-11T06:21:04.708Z,9.59
2022-10-11T06:22:09.039Z,9.63
2022-10-11T06:23:12.690Z,9.63
2022-10-11T06:24:17.248Z,9.67
2022-10-11T06:25:21.916Z,9.72
2022-10-11T06:26:26.440Z,9.74
2022-10-11T06:27:29.718Z,9.76
2022-10-11T06:28:35.180Z,9.79
2022-10-11T06:29:38.538Z,9.81
2022-10-11T06:30:43.063Z,9.84
2022-10-11T06:31:47.519Z,9.86
2022-10-11T06:32:50.802Z,9.89
2022-10-11T06:33:55.157Z,9.92
2022-10-11T06:34:58.439Z,9.96
2022-10-11T06:36:05.394Z,9.99
2022-10-11T06:37:10.253Z,10.01
2022-10-11T06:38:14.991Z,10.05
2022-10-11T06:39:19.350Z,10.08
2022-10-11T06:40:24.090Z,10.13
2022-10-11T06:41:30.709Z,10.16
2022-10-11T06:42:33.995Z,10.20
2022-10-11T06:43:38.464Z,10.21
2022-10-11T06:44:41.768Z,10.25
2022-10-11T06:45:46.390Z,10.28
2022-10-11T06:46:49.642Z,10.32
2022-10-11T06:47:54.017Z,10.34
2022-10-11T06:48:57.290Z,10.37
2022-10-11T06:50:01.617Z,10.41
2022-10-11T06:51:05.496Z,10.45
2022-10-11T06:52:10.719Z,10.50
2022-10-11T06:53:15.451Z,10.55
2022-10-11T06:54:19.141Z,10.59
2022-10-11T06:55:25.218Z,10.64
2022-10-11T06:56:30.304Z,10.69
2022-10-11T06:57:35.222Z,10.73
2022-10-11T06:58:39.317Z,10.75
2022-10-11T06:59:43.965Z,10.80
2022-10-11T07:00:47.482Z,10.83
2022-10-11T07:01:51.880Z,10.85
2022-10-11T07:02:55.393Z,10.90
2022-10-11T07:04:00.996Z,10.93
2022-10-11T07:05:04.529Z,10.96
2022-10-11T07:06:10.929Z,11.00
2022-10-11T07:07:14.699Z,11.04
2022-10-11T07:08:19.153Z,11.08
2022-10-11T07:09:22.428Z,11.11
2022-10-11T07:10:28.418Z,11.15
2022-10-11T07:11:31.998Z,11.16
2022-10-11T07:12:36.357Z,11.17
2022-10-11T07:13:41.088Z,11.18
2022-10-11T07:14:46.563Z,11.21
2022-10-11T07:15:49.887Z,11.25
2022-10-11T07:16:55.431Z,11.31
2022-10-11T07:17:58.778Z,11.36
2022-10-11T07:19:04.276Z,11.43
2022-10-11T07:20:09.799Z,11.49
2022-10-11T07:21:14.889Z,11.54
2022-10-11T07:22:19.352Z,11.60
2022-10-11T07:23:25.485Z,11.65
2022-10-11T07:24:30.176Z,11.69
2022-10-11T07:25:35.037Z,11.76
2022-10-11T07:26:39.634Z,11.82
2022-10-11T07:27:43.327Z,11.88
2022-10-11T07:28:48.331Z,11.95
2022-10-11T07:29:53.344Z,12.04
2022-10-11T07:30:57.597Z,12.13
2022-10-11T07:32:02.138Z,12.22
2022-10-11T07:33:05.418Z,12.33
2022-10-11T07:34:10.045Z,12.42
2022-10-11T07:35:13.481Z,12.48
2022-10-11T07:36:17.916Z,12.51
2022-10-11T07:37:21.200Z,12.56
2022-10-11T07:38:25.813Z,12.62
2022-10-11T07:39:29.194Z,12.68
2022-10-11T07:40:42.502Z,12.76
2022-10-11T07:41:47.168Z,12.83
2022-10-11T07:42:50.458Z,12.93
2022-10-11T07:43:55.359Z,13.03
2022-10-11T07:45:00.132Z,13.17
2022-10-11T07:46:05.577Z,13.31
2022-10-11T07:47:11.375Z,13.44
2022-10-11T07:48:15.306Z,13.54
2022-10-11T07:49:19.697Z,13.61
2022-10-11T07:50:23.504Z,13.67
2022-10-11T07:51:28.866Z,13.73
2022-10-11T07:52:32.382Z,13.81
2022-10-11T07:53:41.510Z,13.89
2022-10-11T07:54:45.970Z,13.98
2022-10-11T07:55:50.747Z,14.11
2022-10-11T07:56:55.183Z,14.27
2022-10-11T07:57:58.606Z,14.44
2022-10-11T07:59:03.893Z,14.59
2022-10-11T08:00:08.295Z,14.74
2022-10-11T08:01:16.255Z,14.89
2022-10-11T08:02:19.511Z,15.03
2022-10-11T08:03:24.197Z,15.19
2022-10-11T08:04:28.885Z,15.36
2022-10-11T08:05:32.339Z,15.53
2022-10-11T08:06:37.685Z,15.69
2022-10-11T08:07:41.253Z,15.81
2022-10-11T08:08:45.746Z,15.94
2022-10-11T08:09:48.956Z,16.05
2022-10-11T08:10:55.008Z,16.13
2022-10-11T08:11:59.668Z,16.18
2022-10-11T08:13:04.537Z,16.20
2022-10-11T08:14:11.584Z,16.26
2022-10-11T08:15:16.194Z,16.28
2022-10-11T08:16:20.997Z,16.33
2022-10-11T08:17:25.629Z,16.37
2022-10-11T08:18:29.062Z,16.39
2022-10-11T08:19:33.499Z,16.40
2022-10-11T08:20:39.958Z,16.37
2022-10-11T08:21:44.453Z,16.37
2022-10-11T08:22:47.996Z,16.38
2022-10-11T08:23:52.476Z,16.36
2022-10-11T08:24:55.776Z,16.36
2022-10-11T08:26:01.791Z,16.34
2022-10-11T08:27:05.128Z,16.31
2022-10-11T08:28:10.037Z,16.30
2022-10-11T08:29:14.523Z,16.26
2022-10-11T08:30:18.966Z,16.23
2022-10-11T08:31:23.426Z,16.22
2022-10-11T08:32:26.696Z,16.23
2022-10-11T08:33:31.350Z,16.27
2022-10-11T08:34:35.908Z,16.35
2022-10-11T08:35:39.217Z,16.41
2022-10-11T08:36:43.779Z,16.45
2022-10-11T08:37:47.136Z,16.52
2022-10-11T08:38:51.522Z,16.61
2022-10-11T08:39:54.918Z,16.67
2022-10-11T08:41:02.354Z,16.73
2022-10-11T08:42:08.979Z,16.73
2022-10-11T08:43:16.787Z,16.76
2022-10-11T08:45:05.493Z,16.81
2022-10-11T08:46:03.778Z,16.83
2022-10-11T08:47:12.341Z,16.80
2022-10-11T08:48:18.433Z,16.77
2022-10-11T08:49:26.359Z,16.67
2022-10-11T08:50:29.747Z,16.62
2022-10-11T08:51:37.369Z,16.56
2022-10-11T08:52:45.231Z,16.51
2022-10-11T08:53:54.917Z,16.45
2022-10-11T08:55:00.360Z,16.38
2022-10-11T08:56:06.791Z,16.33
2022-10-11T08:57:14.580Z,16.27
2022-10-11T08:58:22.073Z,16.26
2022-10-11T08:59:32.181Z,16.23
2022-10-11T09:00:38.479Z,16.15
2022-10-11T09:01:48.650Z,16.09
2022-10-11T09:03:08.511Z,16.02
2022-10-11T09:04:14.968Z,15.91
2022-10-11T09:05:20.295Z,15.83
2022-10-11T09:06:42.043Z,15.77
2022-10-11T09:07:50.397Z,15.71
2022-10-11T09:09:17.289Z,15.68
2022-10-11T09:10:46.896Z,15.64
2022-10-11T09:12:06.257Z,15.72
2022-10-11T09:13:19.958Z,15.79
2022-10-11T09:14:52.781Z,15.89
2022-10-11T09:16:07.050Z,16.01
2022-10-11T09:17:16.528Z,16.11
2022-10-11T09:18:48.221Z,16.19
2022-10-11T09:20:22.763Z,16.22
2022-10-11T09:21:32.667Z,16.21
2022-10-11T09:22:45.967Z,16.14
2022-10-11T09:24:09.600Z,16.08
2022-10-11T09:25:23.316Z,16.03
2022-10-11T09:26:29.358Z,16.00
2022-10-11T09:28:01.278Z,16.00
2022-10-11T09:29:08.521Z,16.00
2022-10-11T09:30:15.109Z,16.01
2022-10-11T09:31:19.868Z,16.02
2022-10-11T09:32:24.680Z,16.00
2022-10-11T09:33:34.703Z,15.93
2022-10-11T09:34:38.967Z,15.86
2022-10-11T09:35:47.409Z,15.82
2022-10-11T09:36:56.528Z,15.78
2022-10-11T09:38:03.086Z,15.81
2022-10-11T09:39:20.593Z,15.88
2022-10-11T09:40:36.447Z,15.96
2022-10-11T09:41:47.087Z,16.01
2022-10-11T09:42:52.197Z,16.07
2022-10-11T09:43:56.875Z,16.07
2022-10-11T09:45:02.958Z,16.05
2022-10-11T09:46:25.128Z,16.06
2022-10-11T09:47:30.816Z,16.06
2022-10-11T09:48:42.127Z,16.12
2022-10-11T09:49:50.015Z,16.20
2022-10-11T09:50:57.213Z,16.24
2022-10-11T09:52:02.734Z,16.25
2022-10-11T09:53:07.947Z,16.20
2022-10-11T09:54:11.446Z,16.14
2022-10-11T09:55:32.244Z,16.06
2022-10-11T09:56:42.727Z,16.00
2022-10-11T09:57:56.579Z,15.93
2022-10-11T09:59:18.895Z,15.87
2022-10-11T10:00:24.737Z,15.81
2022-10-11T10:01:30.064Z,15.82
2022-10-11T10:02:42.107Z,15.80
2022-10-11T10:03:45.708Z,15.74
2022-10-11T10:05:05.039Z,15.67
2022-10-11T10:06:12.564Z,15.61
2022-10-11T10:07:16.496Z,15.58
2022-10-11T10:08:25.756Z,15.58
2022-10-11T10:09:31.227Z,15.56
2022-10-11T10:10:40.030Z,15.54
2022-10-11T10:11:44.418Z,15.52
2022-10-11T10:12:54.009Z,15.47
2022-10-11T10:13:59.869Z,15.42
2022-10-11T10:15:07.397Z,15.36
2022-10-11T10:16:22.287Z,15.33
2022-10-11T10:17:25.709Z,15.30
2022-10-11T10:18:34.847Z,15.25
2022-10-11T10:19:45.178Z,15.17
2022-10-11T10:20:53.476Z,15.08
2022-10-11T10:21:58.447Z,15.03
2022-10-11T10:23:04.617Z,14.99
2022-10-11T10:24:18.680Z,14.97
2022-10-11T10:25:27.787Z,14.93
2022-10-11T10:26:32.707Z,14.89
2022-10-11T10:27:36.438Z,14.88
2022-10-11T10:28:41.181Z,14.83
2022-10-11T10:30:02.187Z,14.83
2022-10-11T10:31:06.888Z,14.80
2022-10-11T10:32:14.896Z,14.80
2022-10-11T10:33:21.286Z,14.83
2022-10-11T10:34:26.694Z,14.83
2022-10-11T10:35:34.694Z,14.79
2022-10-11T10:36:41.935Z,14.75
2022-10-11T10:37:51.426Z,14.72
2022-10-11T10:39:00.677Z,14.67
2022-10-11T10:40:07.818Z,14.64
2022-10-11T10:41:15.047Z,14.65
2022-10-11T10:42:19.747Z,14.68
2022-10-11T10:43:26.316Z,14.69
2022-10-11T10:44:29.822Z,14.67
2022-10-11T10:45:40.416Z,14.66
2022-10-11T10:46:52.297Z,14.65
2022-10-11T10:48:04.718Z,14.67
2022-10-11T10:50:49.616Z,14.67
2022-10-11T10:52:05.606Z,14.70
2022-10-11T10:53:19.374Z,14.73
2022-10-11T10:54:33.788Z,14.78
2022-10-11T10:55:42.234Z,14.80
2022-10-11T10:56:49.407Z,14.83
2022-10-11T10:58:22.295Z,14.88
2022-10-11T10:59:40.617Z,14.90
2022-10-11T11:00:48.735Z,14.90
2022-10-11T11:01:56.096Z,14.94
2022-10-11T11:03:03.393Z,14.99
2022-10-11T11:04:23.571Z,15.06
2022-10-11T11:05:35.487Z,15.15
2022-10-11T11:06:44.329Z,15.25
2022-10-11T11:07:52.330Z,15.28
2022-10-11T11:09:05.190Z,15.33
2022-10-11T11:10:17.090Z,15.38
2022-10-11T11:11:32.414Z,15.45
2022-10-11T11:12:44.683Z,15.46
2022-10-11T11:13:55.587Z,15.48
2022-10-11T11:15:03.497Z,15.51
2022-10-11T11:16:15.060Z,15.56
2022-10-11T11:17:27.337Z,15.59
2022-10-11T11:18:37.814Z,15.58
2022-10-11T11:19:49.901Z,15.58
2022-10-11T11:21:14.601Z,15.64
2022-10-11T11:22:32.595Z,15.65
2022-10-11T11:23:42.994Z,15.66
2022-10-11T11:24:53.884Z,15.66
2022-10-11T11:26:04.974Z,15.66
2022-10-11T11:27:14.136Z,15.65
2022-10-11T11:28:27.827Z,15.68
2022-10-11T11:29:40.649Z,15.67
2022-10-11T11:30:51.878Z,15.67
2022-10-11T11:32:10.207Z,15.69
2022-10-11T11:33:23.299Z,15.71
2022-10-11T11:34:28.995Z,15.71
2022-10-11T11:35:39.278Z,15.73
2022-10-11T11:36:45.288Z,15.75
2022-10-11T11:37:54.092Z,15.78
2022-10-11T11:39:04.046Z,15.82
2022-10-11T11:40:17.697Z,15.83
2022-10-11T11:41:25.029Z,15.79
2022-10-11T11:42:35.497Z,15.75
2022-10-11T11:43:44.196Z,15.70
2022-10-11T11:44:49.265Z,15.62
2022-10-11T11:45:56.803Z,15.61
2022-10-11T11:47:04.022Z,15.61
2022-10-11T11:48:12.097Z,15.61
2022-10-11T11:49:18.425Z,15.62
2022-10-11T11:50:25.327Z,15.64
2022-10-11T11:51:31.876Z,15.68
2022-10-11T11:52:40.626Z,15.76
2022-10-11T11:53:50.158Z,15.84
2022-10-11T11:55:01.435Z,15.92
2022-10-11T11:56:23.954Z,15.99
2022-10-11T11:57:33.763Z,16.08
2022-10-11T11:58:44.166Z,16.18
2022-10-11T11:59:52.017Z,16.37
2022-10-11T12:01:00.517Z,16.65
2022-10-11T12:02:25.740Z,17.02
2022-10-11T12:03:35.126Z,17.21
2022-10-11T12:04:44.539Z,17.40
2022-10-11T12:06:23.688Z,17.54
2022-10-11T12:07:28.473Z,17.63
2022-10-11T12:08:34.222Z,17.66
2022-10-11T12:09:38.769Z,17.70
2022-10-11T12:10:56.770Z,17.75
2022-10-11T12:12:02.401Z,17.71
2022-10-11T12:13:29.730Z,17.68
2022-10-11T12:14:41.230Z,17.66
2022-10-11T12:15:57.070Z,17.61
2022-10-11T12:17:15.058Z,17.47
2022-10-11T12:18:19.338Z,17.29
2022-10-11T12:19:22.677Z,17.16
2022-10-11T12:20:27.997Z,17.05
2022-10-11T12:21:34.797Z,16.95
2022-10-11T12:22:43.002Z,16.83
2022-10-11T12:23:48.896Z,16.73
2022-10-11T12:24:56.641Z,16.71
2022-10-11T12:26:45.177Z,16.96
2022-10-11T12:27:50.363Z,17.29
2022-10-11T12:29:25.902Z,17.62
2022-10-11T12:30:54.008Z,17.94
2022-10-11T12:32:31.300Z,18.12
2022-10-11T12:35:43.843Z,18.45
2022-10-11T12:36:49.789Z,18.61
2022-10-11T12:37:53.367Z,18.72
2022-10-11T12:39:30.954Z,18.92
2022-10-11T12:40:37.638Z,18.95
2022-10-11T12:41:53.907Z,18.92
2022-10-11T12:43:31.918Z,19.14
2022-10-11T12:44:35.117Z,19.35
2022-10-11T12:45:39.587Z,19.69
2022-10-11T12:46:59.777Z,20.12
2022-10-11T12:48:24.313Z,20.69
2022-10-11T12:49:58.836Z,20.89
2022-10-11T12:51:16.750Z,20.88
2022-10-11T12:52:28.596Z,20.74
2022-10-11T12:54:07.910Z,20.50
2022-10-11T12:55:32.108Z,20.16
2022-10-11T12:56:46.445Z,19.87
2022-10-11T12:58:24.078Z,19.62
2022-10-11T12:59:28.477Z,19.48
2022-10-11T13:00:34.088Z,19.35
2022-10-11T13:01:39.025Z,19.45
2022-10-11T13:02:42.978Z,19.45
2022-10-11T13:03:51.117Z,19.46
2022-10-11T13:05:08.218Z,19.52
2022-10-11T13:06:17.457Z,19.55
2022-10-11T13:07:23.839Z,19.57
2022-10-11T13:08:29.686Z,19.47
2022-10-11T13:09:35.739Z,19.33
2022-10-11T13:10:44.217Z,19.17
2022-10-11T13:11:51.806Z,18.99
2022-10-11T13:12:56.769Z,18.81
2022-10-11T13:14:02.941Z,18.65
2022-10-11T13:15:10.049Z,18.47
2022-10-11T13:16:16.066Z,18.30
2022-10-11T13:17:23.187Z,18.16
2022-10-11T13:18:26.921Z,18.01
2022-10-11T13:19:33.306Z,17.89
2022-10-11T13:20:40.303Z,17.78
2022-10-11T13:21:54.829Z,17.67
2022-10-11T13:22:59.567Z,17.58
2022-10-11T13:24:04.978Z,17.50
2022-10-11T13:25:10.710Z,17.38
2022-10-11T13:26:14.417Z,17.28
2022-10-11T13:27:22.179Z,17.15
2022-10-11T13:28:25.661Z,17.08
2022-10-11T13:29:34.141Z,17.00
2022-10-11T13:30:38.292Z,16.90
2022-10-11T13:31:42.568Z,16.78
2022-10-11T13:32:46.512Z,16.68
2022-10-11T13:33:51.407Z,16.60
2022-10-11T13:36:07.977Z,16.47
2022-10-11T13:37:18.516Z,16.39
2022-10-11T13:38:23.864Z,16.29
2022-10-11T13:39:31.762Z,16.32
2022-10-11T13:40:36.195Z,16.44
2022-10-11T13:41:40.868Z,16.50
2022-10-11T13:42:44.409Z,16.50
2022-10-11T13:43:48.886Z,16.48
2022-10-11T13:44:52.318Z,16.41
2022-10-11T13:45:57.571Z,16.39
2022-10-11T13:47:01.021Z,16.45
2022-10-11T13:48:05.691Z,16.59
2022-10-11T13:49:26.929Z,16.83
2022-10-11T13:50:34.091Z,17.02
2022-10-11T13:51:38.230Z,17.25
2022-10-11T13:53:00.711Z,17.55
2022-10-11T13:54:05.735Z,17.78
2022-10-11T13:55:11.822Z,17.97
2022-10-11T13:56:20.382Z,18.02
2022-10-11T13:57:34.487Z,17.97
2022-10-11T13:58:41.759Z,17.89
2022-10-11T13:59:45.427Z,17.88
2022-10-11T14:00:57.230Z,17.93
2022-10-11T14:02:04.593Z,17.96
2022-10-11T14:03:18.966Z,17.93
2022-10-11T14:04:26.096Z,17.83
2022-10-11T14:05:36.498Z,17.68
2022-10-11T14:06:42.800Z,17.54
2022-10-11T14:07:49.696Z,17.33
2022-10-11T14:08:57.144Z,17.16
2022-10-11T14:10:00.441Z,17.05
2022-10-11T14:11:06.477Z,17.08
2022-10-11T14:12:30.847Z,17.09
2022-10-11T14:13:37.248Z,17.05
2022-10-11T14:14:42.729Z,16.98
2022-10-11T14:15:47.327Z,16.87
2022-10-11T14:16:56.679Z,16.70
2022-10-11T14:18:01.835Z,16.55
2022-10-11T14:19:10.517Z,16.36
2022-10-11T14:20:18.509Z,16.14
2022-10-11T14:21:26.487Z,15.93
2022-10-11T14:22:30.988Z,15.77
2022-10-11T14:23:34.247Z,15.78
2022-10-11T14:24:40.092Z,15.97
2022-10-11T14:25:43.418Z,16.26
2022-10-11T14:26:50.108Z,16.56
2022-10-11T14:27:54.587Z,16.83
2022-10-11T14:29:00.769Z,17.06
2022-10-11T14:30:27.136Z,17.39
2022-10-11T14:31:32.300Z,17.78
2022-10-11T14:32:37.783Z,18.04
2022-10-11T14:33:42.295Z,18.28
2022-10-11T14:34:46.567Z,18.36
2022-10-11T14:35:51.053Z,18.48
2022-10-11T14:36:55.487Z,18.63
2022-10-11T14:38:00.131Z,18.78
2022-10-11T14:39:03.726Z,18.72
2022-10-11T14:40:15.008Z,18.69
2022-10-11T14:41:18.596Z,18.69
2022-10-11T14:42:22.958Z,18.61
2022-10-11T14:43:26.188Z,18.45
2022-10-11T14:44:33.269Z,18.32
2022-10-11T14:45:36.607Z,18.27
2022-10-11T14:46:41.587Z,18.19
2022-10-11T14:47:45.508Z,18.09
2022-10-11T14:48:55.453Z,17.98